KADS Airport (Addison) Information

FAA: ADS - ICAO: KADS

KADS Airport Location

State Texas
County Dallas
City Dallas
KADS Airport is 9 miles north of Dallas, TX.
Latitude 32-58-06.8000N
Longitude 096-50-11.2000W
Elevation 644ft

KADS Airport METARs

METAR KADS 282147Z 16014G25KT 10SM SKC 34/17 A2974
Altimeter 29.74"
Temperature 34.0°C (93.2°F)
Wind 160° at 14KT with gusts to 25KT
Clouds Skies are clear.
Visibility 10.0mi
Time observed: 2022-05-28T21:47:00Z

KADS Airport Details

Status Operational
Activation November 1956
Ownership Public
Usage Public
Chart DALLAS-FT WORTH
ATC on-site Yes
Beacon schedule sunset-sunrise
Beacon color clear green

KADS Airport Contacts

Owner TOWN OF ADDISON
Owner address P.O. BOX 9010, ADDISON, TX 75001
Owner phone 972-450-2800
Manager C. MAX WILLIAMS
Manager address 5950 BERKSHIRE LA, SUITE 300, DALLAS, TX 75225
Manager phone 214-248-1870

KADS Airport (Addison) Radio Frequencies

KADS (Airport) Radio Frequencies

UNICOM 122.95
Common traffic advisory frequency (CTAF) 126